Time;durP1;ratioP1;P1;durP2;ratioP2;P2;SDS_P1;SDS_P2;PMS_P1;PMS_P2;Temp;Humidity;BMP_temperature;BMP_pressure;BME280_temperature;BME280_humidity;BME280_pressure;Samples;Min_cycle;Max_cycle;Signal;HPM_P1;HPM_P2
2022/09/20 00:00:43;;;;;;;4.82;2.08;;;21.40;58.90;;;;;;4957532;28;92448;-82
2022/09/20 00:03:09;;;;;;;5.68;2.30;;;21.40;58.90;;;;;;4924810;28;93219;-82
2022/09/20 00:05:37;;;;;;;4.72;2.22;;;21.40;58.90;;;;;;4925214;28;92927;-82
2022/09/20 00:08:05;;;;;;;5.38;2.42;;;21.40;58.80;;;;;;4924596;28;93131;-82
2022/09/20 00:10:38;;;;;;;3.13;1.85;;;21.40;58.80;;;;;;4925874;28;92673;-82
2022/09/20 00:13:06;;;;;;;4.05;2.20;;;21.40;58.90;;;;;;4939686;28;96782;-82
2022/09/20 00:15:32;;;;;;;3.63;1.83;;;21.40;58.90;;;;;;4941935;28;95414;-82
2022/09/20 00:17:58;;;;;;;3.88;1.85;;;21.40;58.90;;;;;;4924899;28;92635;-82
2022/09/20 00:20:24;;;;;;;4.63;2.38;;;21.40;58.80;;;;;;4925270;28;92593;-82
2022/09/20 00:22:50;;;;;;;3.80;2.00;;;21.40;58.80;;;;;;4922380;28;97477;-82
2022/09/20 00:25:16;;;;;;;2.97;1.67;;;21.40;58.90;;;;;;4925438;28;93517;-83
2022/09/20 00:27:42;;;;;;;4.03;2.10;;;21.40;58.70;;;;;;4924758;28;92635;-82
2022/09/20 00:30:09;;;;;;;3.33;1.77;;;21.40;58.60;;;;;;4925986;28;92007;-82
2022/09/20 00:32:34;;;;;;;4.82;2.28;;;21.40;58.70;;;;;;4927018;28;93171;-82
2022/09/20 00:35:06;;;;;;;4.07;2.00;;;21.40;58.90;;;;;;4954338;28;96186;-82
2022/09/20 00:37:42;;;;;;;5.90;2.25;;;21.40;58.80;;;;;;4924275;28;92586;-83
2022/09/20 00:40:13;;;;;;;3.45;1.98;;;21.40;58.80;;;;;;4955896;28;91282;-82
2022/09/20 00:42:39;;;;;;;3.53;1.92;;;21.40;58.90;;;;;;4923457;28;96532;-82
2022/09/20 00:45:15;;;;;;;3.22;1.83;;;21.30;58.90;;;;;;4922877;28;95305;-82
2022/09/20 00:47:45;;;;;;;3.20;2.03;;;21.30;58.80;;;;;;4925287;28;93415;-83
2022/09/20 00:50:22;;;;;;;2.60;1.80;;;21.30;59.00;;;;;;4923651;28;92475;-82
2022/09/20 00:52:53;;;;;;;2.92;1.88;;;21.30;58.90;;;;;;4955972;28;96628;-83
2022/09/20 00:55:20;;;;;;;5.32;1.88;;;21.30;58.90;;;;;;4961445;28;94950;-83
2022/09/20 00:57:46;;;;;;;3.45;2.00;;;21.30;58.80;;;;;;4961038;28;92660;-82
2022/09/20 01:00:13;;;;;;;3.00;1.65;;;21.20;59.00;;;;;;4954159;28;92098;-82
2022/09/20 01:02:51;;;;;;;8.02;2.33;;;21.20;58.90;;;;;;4942619;28;95633;-82
2022/09/20 01:05:18;;;;;;;3.38;2.10;;;21.30;58.80;;;;;;4962379;28;93528;-83
2022/09/20 01:07:47;;;;;;;5.72;1.95;;;21.30;58.80;;;;;;4959854;28;92463;-82
2022/09/20 01:10:13;;;;;;;4.10;2.03;;;21.30;58.80;;;;;;4944773;28;92009;-82
2022/09/20 01:12:39;;;;;;;3.45;2.03;;;21.30;58.80;;;;;;4961477;28;93832;-83
2022/09/20 01:15:09;;;;;;;3.13;1.98;;;21.30;58.80;;;;;;4961095;28;93943;-83
2022/09/20 01:17:40;;;;;;;4.05;1.88;;;21.30;58.80;;;;;;4961466;28;92066;-82
2022/09/20 01:20:21;;;;;;;3.72;2.10;;;21.30;58.90;;;;;;4951609;28;92718;-83
2022/09/20 01:23:19;;;;;;;3.78;1.85;;;21.30;58.70;;;;;;4962923;28;93247;-83
2022/09/20 01:26:05;;;;;;;4.35;1.95;;;21.30;58.70;;;;;;4927120;28;93118;-82
2022/09/20 01:28:31;;;;;;;3.45;1.90;;;21.30;58.70;;;;;;4913420;28;92508;-83
2022/09/20 01:31:18;;;;;;;5.60;2.53;;;21.30;58.50;;;;;;4913151;28;91580;-82
2022/09/20 01:33:47;;;;;;;3.70;2.00;;;21.30;58.60;;;;;;4928577;28;94955;-83
2022/09/20 01:36:32;;;;;;;3.88;2.00;;;21.20;58.60;;;;;;4895713;28;98748;-82
2022/09/20 01:39:06;;;;;;;3.90;2.17;;;21.20;58.60;;;;;;4921105;28;93764;-83
2022/09/20 01:41:58;;;;;;;3.78;2.03;;;21.20;58.80;;;;;;4937501;28;92416;-81
2022/09/20 01:44:36;;;;;;;3.40;1.50;;;21.20;58.80;;;;;;4922450;28;93047;-82
2022/09/20 01:47:30;;;;;;;2.67;1.88;;;21.20;58.80;;;;;;4938945;28;95831;-83
2022/09/20 01:50:07;;;;;;;3.70;1.90;;;21.20;58.80;;;;;;4920098;28;92309;-83
2022/09/20 01:52:50;;;;;;;3.25;1.73;;;21.20;58.90;;;;;;4921071;28;92269;-82
2022/09/20 01:55:18;;;;;;;2.67;1.70;;;21.20;58.80;;;;;;4917981;28;95501;-83
2022/09/20 01:58:19;;;;;;;2.28;1.45;;;21.20;58.60;;;;;;4920615;28;93050;-83
2022/09/20 02:01:09;;;;;;;2.65;1.58;;;21.20;58.70;;;;;;4919933;28;92734;-82
2022/09/20 02:04:08;;;;;;;5.25;2.00;;;21.20;58.80;;;;;;4938202;28;92132;-82
2022/09/20 02:07:09;;;;;;;2.58;1.50;;;21.20;58.70;;;;;;4940357;28;102128;-82
2022/09/20 02:09:35;;;;;;;2.83;1.50;;;21.20;58.90;;;;;;4925274;28;98444;-83
2022/09/20 02:12:38;;;;;;;3.40;1.83;;;21.20;58.80;;;;;;4959080;28;91937;-83
2022/09/20 02:15:28;;;;;;;3.55;1.75;;;21.20;58.70;;;;;;4958950;28;92328;-83
2022/09/20 02:18:26;;;;;;;2.63;1.60;;;21.30;58.70;;;;;;4958701;28;94802;-83
2022/09/20 02:21:02;;;;;;;3.97;2.03;;;21.20;58.60;;;;;;4926782;28;94130;-83
2022/09/20 02:23:31;;;;;;;2.47;1.40;;;21.20;58.70;;;;;;4965341;28;92698;-83
2022/09/20 02:26:22;;;;;;;3.72;2.13;;;21.20;58.60;;;;;;4928616;28;91708;-82
2022/09/20 02:29:09;;;;;;;3.38;1.42;;;21.20;58.60;;;;;;4924744;28;93706;-82
2022/09/20 02:31:58;;;;;;;2.55;1.38;;;21.20;58.60;;;;;;4926406;28;93396;-82
2022/09/20 02:34:36;;;;;;;4.13;1.77;;;21.20;58.60;;;;;;4924511;28;93702;-82
2022/09/20 02:37:39;;;;;;;3.28;1.90;;;21.30;58.40;;;;;;4957398;28;92647;-82
2022/09/20 02:40:13;;;;;;;2.58;1.60;;;21.30;58.40;;;;;;4956339;28;97012;-82
2022/09/20 02:42:45;;;;;;;2.08;1.48;;;21.30;58.60;;;;;;4924696;28;92821;-82
2022/09/20 02:45:34;;;;;;;3.47;1.73;;;21.20;58.40;;;;;;4957285;28;92527;-82
2022/09/20 02:48:03;;;;;;;2.67;1.60;;;21.30;58.60;;;;;;4924290;28;92009;-82
2022/09/20 02:50:38;;;;;;;;;;;21.30;58.50;;;;;;4924784;28;95046;-82
2022/09/20 02:53:40;;;;;;;2.83;1.60;;;21.20;58.50;;;;;;4960863;28;95327;-82
2022/09/20 02:56:44;;;;;;;2.78;1.67;;;21.20;58.50;;;;;;4957643;28;92523;-82
2022/09/20 02:59:50;;;;;;;2.97;1.70;;;21.20;58.50;;;;;;4949366;28;93037;-82
2022/09/20 03:02:15;;;;;;;5.20;1.70;;;21.20;58.60;;;;;;4931211;28;97951;-82
2022/09/20 03:04:56;;;;;;;3.67;1.80;;;21.20;58.50;;;;;;4925018;28;94223;-82
2022/09/20 03:07:31;;;;;;;2.63;1.80;;;21.20;58.50;;;;;;4932928;28;92078;-83
2022/09/20 03:10:14;;;;;;;2.63;1.75;;;21.20;58.40;;;;;;4921222;28;92031;-82
2022/09/20 03:13:13;;;;;;;2.47;1.50;;;21.20;58.40;;;;;;4923569;28;93821;-82
2022/09/20 03:16:04;;;;;;;2.08;1.27;;;21.20;58.40;;;;;;4923311;28;97454;-82
2022/09/20 03:18:47;;;;;;;2.30;1.60;;;21.20;58.40;;;;;;4913687;28;92717;-82
2022/09/20 03:21:48;;;;;;;2.38;1.23;;;21.30;58.40;;;;;;4917023;28;94363;-83
2022/09/20 03:24:41;;;;;;;3.63;1.70;;;21.20;58.30;;;;;;4875016;28;97950;-83
2022/09/20 03:27:31;;;;;;;1.92;1.30;;;21.20;58.30;;;;;;4876125;28;92770;-83
2022/09/20 03:30:21;;;;;;;2.28;1.40;;;21.30;58.30;;;;;;4867155;28;93128;-83
2022/09/20 03:32:56;;;;;;;2.15;1.40;;;21.20;58.20;;;;;;4875811;28;92462;-83
2022/09/20 03:35:47;;;;;;;2.97;1.67;;;21.20;58.30;;;;;;4865159;28;96633;-83
2022/09/20 03:38:51;;;;;;;2.65;1.48;;;21.20;59.00;;;;;;4879571;28;92442;-83
2022/09/20 03:41:23;;;;;;;2.80;1.70;;;21.30;58.40;;;;;;4895484;28;92373;-82
2022/09/20 03:43:49;;;;;;;2.22;1.40;;;21.20;58.30;;;;;;4910514;28;92382;-83
2022/09/20 03:46:25;;;;;;;2.42;1.55;;;21.30;58.50;;;;;;4894151;28;92791;-82
2022/09/20 03:49:28;;;;;;;2.45;1.55;;;21.20;58.40;;;;;;4904690;28;96126;-83
2022/09/20 03:52:05;;;;;;;4.22;1.63;;;21.20;58.40;;;;;;4895659;28;93341;-82
2022/09/20 03:54:46;;;;;;;2.42;1.60;;;21.20;58.40;;;;;;4895660;28;92416;-83
2022/09/20 03:57:26;;;;;;;1.83;1.20;;;21.20;58.40;;;;;;4901927;28;102957;-82
2022/09/20 04:00:06;;;;;;;2.28;1.33;;;21.20;58.40;;;;;;4914339;28;97777;-84
2022/09/20 04:02:39;;;;;;;2.15;1.30;;;21.20;58.40;;;;;;4949242;28;92414;-83
2022/09/20 04:05:11;;;;;;;2.10;1.30;;;21.20;58.40;;;;;;4932282;28;92525;-83
2022/09/20 04:07:52;;;;;;;2.40;1.38;;;21.20;58.50;;;;;;4949166;28;96958;-83
2022/09/20 04:10:39;;;;;;;1.95;1.20;;;21.20;58.50;;;;;;4933299;28;93427;-83
2022/09/20 04:13:24;;;;;;;2.47;1.45;;;21.20;58.40;;;;;;4921545;28;93316;-83
2022/09/20 04:16:27;;;;;;;2.13;1.50;;;21.20;58.30;;;;;;4924957;28;91938;-83
2022/09/20 04:18:56;;;;;;;2.50;1.60;;;21.20;58.40;;;;;;4921931;28;96710;-82
2022/09/20 04:21:34;;;;;;;1.53;1.20;;;21.20;58.40;;;;;;4925601;28;92920;-82
2022/09/20 04:24:11;;;;;;;2.38;1.15;;;21.20;58.40;;;;;;4905475;28;92992;-83
2022/09/20 04:26:43;;;;;;;1.77;1.33;;;21.20;58.30;;;;;;4924186;28;92151;-82
2022/09/20 04:29:25;;;;;;;2.28;1.33;;;21.20;58.50;;;;;;4896674;28;96224;-83
2022/09/20 04:32:16;;;;;;;1.80;1.40;;;21.20;58.30;;;;;;4922306;28;93256;-82
2022/09/20 04:37:49;;;;;;;2.10;1.23;;;21.20;58.30;;;;;;4923015;28;92118;-82
2022/09/20 04:40:39;;;;;;;1.85;1.50;;;21.20;58.10;;;;;;4922521;28;93516;-82
2022/09/20 04:43:36;;;;;;;2.08;1.30;;;21.20;58.20;;;;;;4924820;28;91941;-82
2022/09/20 04:46:08;;;;;;;1.95;1.23;;;21.10;58.20;;;;;;4951912;28;92520;-81
2022/09/20 04:49:11;;;;;;;3.85;1.40;;;21.10;58.30;;;;;;4951712;28;92586;-82
2022/09/20 04:52:21;;;;;;;2.40;1.40;;;21.10;58.40;;;;;;4970476;28;98880;-81
2022/09/20 04:55:31;;;;;;;3.42;1.40;;;20.90;58.60;;;;;;4987128;28;101594;-83
2022/09/20 04:58:18;;;;;;;3.03;1.50;;;20.80;58.80;;;;;;4902626;28;92171;-83
2022/09/20 05:01:04;;;;;;;3.05;1.50;;;20.90;59.00;;;;;;4904427;28;92099;-82
2022/09/20 05:04:07;;;;;;;5.13;1.50;;;20.90;59.10;;;;;;4877314;28;101279;-82
2022/09/20 05:06:51;;;;;;;2.85;1.38;;;20.90;59.10;;;;;;4877219;28;99248;-81
2022/09/20 05:09:39;;;;;;;6.28;1.95;;;20.80;59.10;;;;;;4883630;28;92022;-80
2022/09/20 05:12:29;;;;;;;2.90;1.45;;;20.90;59.30;;;;;;4884717;28;91431;-82
2022/09/20 05:15:29;;;;;;;4.57;1.40;;;21.00;59.20;;;;;;4887127;28;96368;-81
2022/09/20 05:18:35;;;;;;;3.90;1.60;;;21.00;59.20;;;;;;4902815;28;95199;-81
2022/09/20 05:21:06;;;;;;;2.15;1.40;;;21.00;58.90;;;;;;4892477;28;93843;-81
2022/09/20 05:24:09;;;;;;;2.72;1.60;;;21.10;58.90;;;;;;4893528;28;93491;-81
2022/09/20 05:26:43;;;;;;;3.65;2.00;;;21.10;58.70;;;;;;4877927;28;96761;-81
2022/09/20 05:29:43;;;;;;;3.20;1.20;;;21.10;58.70;;;;;;4882622;28;94028;-82
2022/09/20 05:32:37;;;;;;;3.30;1.50;;;21.10;58.60;;;;;;4874732;28;92092;-81
2022/09/20 05:35:21;;;;;;;2.58;1.58;;;21.10;58.70;;;;;;4860287;28;92661;-81
2022/09/20 05:37:53;;;;;;;2.70;1.50;;;21.10;58.40;;;;;;4857628;28;96951;-81
2022/09/20 05:40:29;;;;;;;3.63;1.63;;;21.10;58.40;;;;;;4890412;28;94868;-82
2022/09/20 05:43:19;;;;;;;2.25;1.40;;;21.10;58.60;;;;;;4874360;28;92123;-81
2022/09/20 05:45:48;;;;;;;2.35;1.55;;;21.10;58.50;;;;;;4875881;28;93091;-81
2022/09/20 05:48:18;;;;;;;4.43;1.65;;;21.10;58.50;;;;;;4889031;28;101900;-81
2022/09/20 05:51:22;;;;;;;3.67;1.52;;;21.10;58.50;;;;;;4873194;28;93750;-81
2022/09/20 05:54:25;;;;;;;1.90;1.33;;;21.10;58.60;;;;;;4887895;28;92593;-81
2022/09/20 05:57:18;;;;;;;3.65;1.60;;;21.10;58.60;;;;;;4872229;28;92041;-81
2022/09/20 06:00:19;;;;;;;4.18;1.45;;;21.10;58.60;;;;;;4865428;28;96866;-81
2022/09/20 06:02:50;;;;;;;3.50;1.60;;;21.00;58.60;;;;;;4864820;28;95642;-80
2022/09/20 06:05:21;;;;;;;7.53;2.28;;;21.00;58.60;;;;;;4881570;28;92302;-81
2022/09/20 06:08:14;;;;;;;14.68;3.65;;;21.00;58.80;;;;;;4882423;28;91418;-81
2022/09/20 06:11:02;;;;;;;21.38;4.38;;;21.10;58.90;;;;;;4898222;28;95174;-82
2022/09/20 06:13:46;;;;;;;12.82;3.97;;;21.00;58.50;;;;;;4924504;28;92875;-81
2022/09/20 06:16:24;;;;;;;14.55;4.47;;;21.00;59.00;;;;;;4925845;28;93472;-81
2022/09/20 06:19:15;;;;;;;13.57;3.85;;;20.90;59.00;;;;;;4923989;28;92616;-81
2022/09/20 06:21:48;;;;;;;20.27;5.78;;;20.90;59.30;;;;;;4925826;28;92961;-82
2022/09/20 06:24:33;;;;;;;21.10;4.70;;;20.90;58.80;;;;;;4923724;28;98564;-81
2022/09/20 06:27:03;;;;;;;19.60;4.93;;;20.90;58.90;;;;;;4954995;28;92056;-80
2022/09/20 06:29:33;;;;;;;31.05;7.65;;;21.00;59.10;;;;;;4923277;28;92701;-81
2022/09/20 06:31:59;;;;;;;31.30;6.85;;;20.90;57.70;;;;;;4924505;28;93550;-82
2022/09/20 06:34:26;;;;;;;29.02;6.55;;;20.80;57.70;;;;;;4916597;28;92203;-82
2022/09/20 06:42:59;;;;;;;19.50;5.65;;;20.90;59.10;;;;;;4865678;28;93439;-82
2022/09/20 06:45:25;;;;;;;18.23;5.70;;;20.90;59.10;;;;;;4864675;28;96967;-82
2022/09/20 06:47:50;;;;;;;23.55;5.97;;;21.00;59.40;;;;;;4866083;28;92113;-82
2022/09/20 06:50:17;;;;;;;23.77;5.55;;;21.00;59.60;;;;;;4865343;28;92488;-82
2022/09/20 06:52:44;;;;;;;24.90;6.13;;;21.10;59.50;;;;;;4874898;28;95804;-82
2022/09/20 06:55:20;;;;;;;24.02;5.90;;;21.10;59.60;;;;;;4851663;28;95940;-82
2022/09/20 06:57:46;;;;;;;20.63;6.07;;;21.10;59.40;;;;;;4852184;28;92229;-81
2022/09/20 07:00:14;;;;;;;20.17;6.28;;;21.10;59.40;;;;;;4868597;28;91426;-82
2022/09/20 07:02:41;;;;;;;20.48;5.53;;;21.10;59.50;;;;;;4857230;28;95738;-82
2022/09/20 07:05:13;;;;;;;18.80;5.68;;;21.00;59.60;;;;;;4858262;29;93784;-82
2022/09/20 07:07:49;;;;;;;17.40;5.47;;;21.00;59.60;;;;;;4864739;28;93181;-83
2022/09/20 07:10:17;;;;;;;19.00;5.70;;;21.00;59.70;;;;;;4872345;28;92127;-83
2022/09/20 07:12:43;;;;;;;18.25;5.25;;;21.00;59.80;;;;;;4857782;29;93309;-83
2022/09/20 07:15:09;;;;;;;16.77;5.32;;;21.00;59.70;;;;;;4857778;28;92090;-84
2022/09/20 07:17:34;;;;;;;18.27;5.60;;;21.00;59.60;;;;;;4930638;28;92067;-82
2022/09/20 07:20:21;;;;;;;20.73;4.80;;;21.00;59.80;;;;;;4923203;28;93034;-82
2022/09/20 07:22:47;;;;;;;23.42;5.90;;;21.00;59.80;;;;;;4862025;28;102186;-83
2022/09/20 07:25:13;;;;;;;19.40;5.65;;;21.00;59.80;;;;;;4920627;28;92911;-83
2022/09/20 07:27:41;;;;;;;19.80;5.60;;;21.00;59.80;;;;;;4939414;28;92928;-83
2022/09/20 07:30:09;;;;;;;18.42;5.50;;;21.00;59.60;;;;;;4924358;28;92627;-81
2022/09/20 07:32:34;;;;;;;13.40;4.47;;;21.00;59.60;;;;;;4915355;28;95717;-83
2022/09/20 07:35:00;;;;;;;17.08;5.13;;;21.00;59.60;;;;;;4924496;28;97765;-83
2022/09/20 07:37:26;;;;;;;19.00;5.97;;;21.00;59.60;;;;;;4959008;28;92730;-83
2022/09/20 07:39:51;;;;;;;21.88;5.43;;;21.00;59.40;;;;;;4925571;28;92362;-83
2022/09/20 07:42:17;;;;;;;18.88;5.38;;;21.10;59.40;;;;;;4960032;28;96396;-82
2022/09/20 07:44:43;;;;;;;18.38;5.40;;;21.00;59.60;;;;;;4924801;28;96081;-83
2022/09/20 07:47:10;;;;;;;15.55;5.05;;;21.00;59.70;;;;;;4926937;28;92405;-83
2022/09/20 07:49:35;;;;;;;16.77;5.60;;;21.00;59.70;;;;;;4927343;28;91500;-83
2022/09/20 07:52:02;;;;;;;17.73;5.25;;;21.00;59.80;;;;;;4926516;28;94038;-83
2022/09/20 07:54:31;;;;;;;16.73;5.80;;;21.00;59.80;;;;;;4927546;28;96330;-83
2022/09/20 07:56:56;;;;;;;12.40;4.32;;;21.00;59.70;;;;;;4923646;28;93535;-82
2022/09/20 07:59:23;;;;;;;18.83;5.55;;;21.10;59.80;;;;;;4958417;28;92069;-83
2022/09/20 08:01:48;;;;;;;17.95;4.60;;;21.00;59.80;;;;;;4925584;28;92765;-82
2022/09/20 08:04:14;;;;;;;17.83;5.40;;;21.00;59.80;;;;;;4927556;28;92863;-82
2022/09/20 08:06:42;;;;;;;19.13;5.43;;;21.00;60.50;;;;;;4927858;28;92666;-83
2022/09/20 08:09:09;;;;;;;16.38;5.40;;;21.00;59.80;;;;;;4927519;28;92134;-83
2022/09/20 08:11:35;;;;;;;14.10;5.05;;;21.00;59.70;;;;;;4923514;28;96443;-83
2022/09/20 08:14:02;;;;;;;16.08;5.38;;;21.00;59.80;;;;;;4957570;28;96083;-84
2022/09/20 08:16:28;;;;;;;16.38;4.85;;;21.00;59.80;;;;;;4925378;28;91992;-80
2022/09/20 08:18:57;;;;;;;14.38;4.95;;;21.00;59.70;;;;;;4937593;28;92579;-80
2022/09/20 08:21:24;;;;;;;18.23;5.47;;;21.00;59.90;;;;;;4954248;28;96623;-80
2022/09/20 08:23:50;;;;;;;14.32;4.53;;;21.00;59.80;;;;;;4916197;28;94709;-80
2022/09/20 08:26:18;;;;;;;15.32;4.43;;;21.00;59.70;;;;;;4924014;28;92135;-82
2022/09/20 08:28:45;;;;;;;18.27;4.80;;;21.00;59.70;;;;;;4925614;28;92669;-82
2022/09/20 08:31:18;;;;;;;13.43;4.20;;;21.00;59.70;;;;;;4949469;28;96879;-82
2022/09/20 08:33:46;;;;;;;15.15;5.22;;;21.00;59.90;;;;;;4924259;28;95995;-82
2022/09/20 08:36:17;;;;;;;13.35;4.43;;;21.00;59.90;;;;;;4924896;28;92427;-81
2022/09/20 08:38:43;;;;;;;18.63;5.25;;;21.00;60.00;;;;;;4925653;28;91787;-82
2022/09/20 08:41:20;;;;;;;14.15;4.55;;;21.00;59.90;;;;;;4957168;28;95683;-82
2022/09/20 08:43:50;;;;;;;17.80;4.93;;;21.00;60.00;;;;;;4957437;28;96448;-81
2022/09/20 08:46:24;;;;;;;16.88;4.75;;;21.00;59.90;;;;;;4940719;28;94658;-82
2022/09/20 08:48:51;;;;;;;16.10;4.60;;;21.00;60.00;;;;;;4941097;28;92514;-81
2022/09/20 08:51:18;;;;;;;16.70;4.85;;;21.00;59.90;;;;;;4925475;28;92835;-81
2022/09/20 08:53:48;;;;;;;12.50;4.40;;;21.00;59.90;;;;;;4921855;28;93102;-80
2022/09/20 08:56:15;;;;;;;16.63;4.82;;;21.10;60.00;;;;;;4953715;28;92044;-80
2022/09/20 08:58:41;;;;;;;15.55;5.40;;;21.10;59.80;;;;;;4922755;28;92075;-80
2022/09/20 09:01:13;;;;;;;12.07;4.25;;;21.10;59.70;;;;;;4922313;28;93201;-80
2022/09/20 09:03:38;;;;;;;13.10;4.15;;;21.00;59.60;;;;;;4924503;28;93232;-80
2022/09/20 09:06:04;;;;;;;13.43;4.70;;;21.00;59.70;;;;;;4921549;28;92589;-80
2022/09/20 09:08:35;;;;;;;11.52;3.83;;;21.00;59.70;;;;;;4921973;28;92133;-80
2022/09/20 09:11:09;;;;;;;11.85;4.35;;;21.00;59.60;;;;;;4923742;28;94182;-80
2022/09/20 09:13:54;;;;;;;16.88;4.80;;;21.00;59.80;;;;;;4923370;28;93976;-80
2022/09/20 09:16:22;;;;;;;10.68;4.53;;;21.00;59.70;;;;;;4922604;28;92303;-81
2022/09/20 09:18:49;;;;;;;13.73;4.65;;;21.10;59.80;;;;;;4920132;28;92429;-80
2022/09/20 09:21:26;;;;;;;13.98;4.47;;;21.00;59.70;;;;;;4922309;28;95395;-80
2022/09/20 09:24:12;;;;;;;14.05;4.55;;;21.10;59.90;;;;;;4922066;28;100695;-81
2022/09/20 09:26:42;;;;;;;11.85;4.82;;;21.10;59.70;;;;;;4922781;28;92065;-80
2022/09/20 09:29:15;;;;;;;17.92;4.40;;;21.10;59.80;;;;;;4922007;28;91508;-80
2022/09/20 09:31:43;;;;;;;14.13;4.68;;;21.10;59.70;;;;;;4952761;28;96451;-81
2022/09/20 09:34:29;;;;;;;13.95;4.65;;;21.00;59.70;;;;;;4921536;28;94615;-80
2022/09/20 09:36:57;;;;;;;15.80;4.53;;;21.10;59.70;;;;;;4920501;28;93808;-82
2022/09/20 09:39:26;;;;;;;14.10;4.30;;;21.10;59.90;;;;;;4922768;28;92209;-81
2022/09/20 09:41:52;;;;;;;11.50;4.75;;;21.10;59.70;;;;;;4922784;28;93579;-82
2022/09/20 09:44:21;;;;;;;15.57;5.18;;;21.10;59.70;;;;;;4953743;28;95777;-82
2022/09/20 09:46:49;;;;;;;13.57;4.07;;;21.10;59.70;;;;;;4953528;28;93063;-79
2022/09/20 09:49:21;;;;;;;11.43;4.25;;;21.00;59.70;;;;;;4921628;28;91999;-79
2022/09/20 09:51:56;;;;;;;9.38;3.90;;;21.10;59.80;;;;;;4922718;28;93947;-80
2022/09/20 09:54:27;;;;;;;11.73;4.22;;;21.10;59.70;;;;;;4922734;28;100784;-78
2022/09/20 09:57:15;;;;;;;13.23;4.53;;;21.10;59.80;;;;;;4954915;28;92063;-80
2022/09/20 10:00:11;;;;;;;10.57;3.90;;;21.10;59.80;;;;;;4922088;28;92025;-80
2022/09/20 10:02:49;;;;;;;14.07;4.30;;;21.00;59.90;;;;;;4951297;28;96978;-79
2022/09/20 10:05:29;;;;;;;12.10;4.35;;;21.10;60.30;;;;;;4953593;28;96109;-81
2022/09/20 10:08:34;;;;;;;12.18;4.15;;;21.10;60.40;;;;;;4926165;28;92478;-80
2022/09/20 10:11:28;;;;;;;9.40;3.85;;;21.10;60.40;;;;;;4953104;28;91956;-81
2022/09/20 10:14:30;;;;;;;14.20;3.95;;;21.10;60.40;;;;;;4951910;28;96674;-80
2022/09/20 10:17:11;;;;;;;9.93;3.97;;;21.10;60.50;;;;;;4938356;28;96509;-82
2022/09/20 10:19:55;;;;;;;9.25;3.88;;;21.10;60.40;;;;;;4922848;28;92501;-82
2022/09/20 10:22:49;;;;;;;10.85;3.72;;;21.10;60.70;;;;;;4954414;28;91614;-82
2022/09/20 10:25:21;;;;;;;11.13;3.67;;;21.20;60.50;;;;;;4923716;28;93710;-81
2022/09/20 10:27:59;;;;;;;10.20;3.92;;;21.20;60.50;;;;;;4957685;28;95077;-81
2022/09/20 10:30:40;;;;;;;11.40;3.90;;;21.10;60.70;;;;;;4938727;28;92947;-82
2022/09/20 10:33:20;;;;;;;13.15;3.75;;;21.10;60.80;;;;;;4923620;28;92104;-81
2022/09/20 10:36:09;;;;;;;12.00;3.35;;;21.10;60.80;;;;;;4955272;28;95950;-81
2022/09/20 10:38:47;;;;;;;;;;;21.20;59.40;;;;;;4925423;28;92956;-80
2022/09/20 10:44:34;;;;;;;14.10;4.22;;;21.20;60.40;;;;;;4925347;28;92130;-81
2022/09/20 10:47:06;;;;;;;12.32;3.35;;;21.20;60.40;;;;;;4924612;28;93377;-81
2022/09/20 10:49:38;;;;;;;8.48;3.72;;;21.10;60.10;;;;;;4930935;28;95108;-81
2022/09/20 10:52:15;;;;;;;9.52;3.67;;;21.10;59.80;;;;;;4925212;28;92418;-81
2022/09/20 10:54:41;;;;;;;13.32;4.30;;;21.10;59.50;;;;;;4926969;28;92580;-80
2022/09/20 10:57:37;;;;;;;10.18;3.78;;;21.10;59.40;;;;;;4924026;28;94274;-81
2022/09/20 11:00:34;;;;;;;9.60;3.60;;;21.10;59.20;;;;;;4956199;28;96226;-81
2022/09/20 11:03:17;;;;;;;9.02;3.85;;;21.10;59.10;;;;;;4925455;28;92577;-81
2022/09/20 11:05:58;;;;;;;9.18;3.55;;;21.10;59.20;;;;;;4955729;28;92117;-80
2022/09/20 11:08:31;;;;;;;13.32;3.47;;;21.10;59.80;;;;;;4925287;28;93250;-80
2022/09/20 11:11:15;;;;;;;11.30;3.67;;;21.10;59.20;;;;;;4939825;28;94794;-81
2022/09/20 11:13:56;;;;;;;6.13;3.00;;;21.10;59.00;;;;;;4955166;28;92570;-81
2022/09/20 11:16:35;;;;;;;9.38;3.38;;;21.10;58.90;;;;;;4956173;28;91667;-81
2022/09/20 11:19:39;;;;;;;9.00;3.28;;;21.10;58.90;;;;;;4925532;28;93157;-81
2022/09/20 11:22:31;;;;;;;10.18;4.00;;;21.10;58.80;;;;;;4937850;28;96295;-82
2022/09/20 11:25:00;;;;;;;6.25;3.03;;;21.10;58.80;;;;;;4921214;28;93109;-81
2022/09/20 11:27:49;;;;;;;6.53;2.50;;;21.10;58.50;;;;;;4921701;28;92348;-81
2022/09/20 11:30:21;;;;;;;10.48;3.15;;;21.10;58.60;;;;;;4923891;28;97806;-82
2022/09/20 11:32:52;;;;;;;10.43;3.63;;;21.10;58.60;;;;;;4921849;28;92808;-81
2022/09/20 11:35:33;;;;;;;7.05;2.92;;;21.10;58.40;;;;;;4920785;28;92390;-81
2022/09/20 11:38:15;;;;;;;7.07;2.92;;;21.10;58.40;;;;;;4921139;28;92085;-81
2022/09/20 11:40:47;;;;;;;8.82;3.40;;;21.10;58.40;;;;;;4922466;28;92871;-81
2022/09/20 11:43:14;;;;;;;6.38;2.65;;;21.10;58.40;;;;;;4922174;28;93964;-81
2022/09/20 11:45:43;;;;;;;6.88;2.95;;;21.00;58.40;;;;;;4923488;28;92741;-81
2022/09/20 11:48:20;;;;;;;6.60;3.13;;;21.10;58.50;;;;;;4923250;28;92154;-81
2022/09/20 11:51:07;;;;;;;5.63;2.85;;;21.00;58.30;;;;;;4922037;28;95871;-81
2022/09/20 11:54:04;;;;;;;8.63;3.22;;;21.10;58.30;;;;;;4922275;28;92776;-81
2022/09/20 11:56:33;;;;;;;8.02;2.92;;;21.10;58.00;;;;;;4923605;28;92673;-81
2022/09/20 11:59:01;;;;;;;7.32;3.10;;;21.10;58.00;;;;;;4924530;28;92524;-81
2022/09/20 12:01:36;;;;;;;6.22;2.42;;;21.10;58.00;;;;;;4923240;28;95598;-82
2022/09/20 12:04:18;;;;;;;7.82;3.05;;;21.10;58.00;;;;;;4924792;28;94677;-81
2022/09/20 12:06:44;;;;;;;7.07;2.78;;;21.10;58.00;;;;;;4925140;28;92464;-81
2022/09/20 12:09:51;;;;;;;5.03;2.30;;;21.10;57.90;;;;;;4924401;28;91351;-81
2022/09/20 12:12:40;;;;;;;10.30;3.72;;;21.10;58.00;;;;;;4922157;28;98164;-81
2022/09/20 12:15:18;;;;;;;6.95;2.60;;;21.10;57.90;;;;;;4920683;28;92554;-81
2022/09/20 12:17:47;;;;;;;9.15;3.15;;;21.10;57.80;;;;;;4920871;28;93686;-81
2022/09/20 12:20:31;;;;;;;8.02;2.88;;;21.10;57.80;;;;;;4946763;28;92506;-81
2022/09/20 12:23:34;;;;;;;7.07;2.72;;;21.10;57.90;;;;;;4938755;28;92885;-81
2022/09/20 12:26:03;;;;;;;7.47;3.20;;;21.10;58.10;;;;;;4937885;28;93364;-81
2022/09/20 12:28:43;;;;;;;5.57;2.40;;;21.20;57.30;;;;;;4941359;28;92124;-81
2022/09/20 12:31:17;;;;;;;7.55;2.30;;;21.20;57.50;;;;;;4942695;28;92465;-81
2022/09/20 12:34:10;;;;;;;6.95;2.58;;;21.20;57.50;;;;;;4940863;28;95663;-81
2022/09/20 12:36:45;;;;;;;13.10;3.60;;;21.10;57.70;;;;;;4939712;28;97908;-81
2022/09/20 12:39:10;;;;;;;5.82;2.50;;;21.10;57.80;;;;;;4941033;28;92663;-81
2022/09/20 12:42:06;;;;;;;6.88;2.90;;;21.10;57.90;;;;;;4941432;28;92761;-82
2022/09/20 12:44:35;;;;;;;7.93;3.15;;;21.10;58.00;;;;;;4939537;28;94207;-82
2022/09/20 12:47:08;;;;;;;11.25;2.50;;;21.10;57.90;;;;;;4924210;28;94606;-81
2022/09/20 12:55:29;;;;;;;5.43;2.47;;;21.10;57.70;;;;;;4924098;28;92579;-81
2022/09/20 12:58:00;;;;;;;7.68;2.63;;;21.10;57.40;;;;;;4919602;28;93370;-81
2022/09/20 13:00:47;;;;;;;6.15;2.25;;;21.20;57.20;;;;;;4925604;28;92468;-82
2022/09/20 13:03:27;;;;;;;5.30;2.47;;;21.10;57.20;;;;;;4941616;28;92441;-82
2022/09/20 13:06:14;;;;;;;;;;;21.10;57.10;;;;;;4938712;28;94027;-82
2022/09/20 13:09:08;;;;;;;6.13;2.08;;;21.10;57.20;;;;;;4957083;28;95614;-82
2022/09/20 13:11:53;;;;;;;4.90;2.17;;;21.10;57.20;;;;;;4940536;28;93036;-81
2022/09/20 13:14:30;;;;;;;6.93;2.50;;;21.10;57.30;;;;;;4940962;28;92791;-82
2022/09/20 13:17:00;;;;;;;7.15;2.30;;;21.10;58.10;;;;;;4940011;28;93799;-82
2022/09/20 13:19:43;;;;;;;5.07;2.10;;;21.00;57.30;;;;;;4956479;28;95772;-81
2022/09/20 13:22:40;;;;;;;6.30;2.50;;;21.10;57.30;;;;;;4954050;28;92175;-80
2022/09/20 13:25:12;;;;;;;8.05;2.42;;;21.10;57.30;;;;;;4923256;28;92485;-81
2022/09/20 13:27:40;;;;;;;6.93;2.55;;;21.10;57.30;;;;;;4940640;28;92823;-80
2022/09/20 13:30:22;;;;;;;5.68;2.30;;;21.10;57.30;;;;;;4918185;28;93049;-81
2022/09/20 13:32:54;;;;;;;5.95;2.75;;;21.10;57.20;;;;;;4920150;28;92242;-82
2022/09/20 13:35:22;;;;;;;4.93;2.28;;;21.10;57.40;;;;;;4916466;28;92633;-81
2022/09/20 13:37:55;;;;;;;4.10;2.00;;;21.10;57.10;;;;;;4922365;28;94145;-81
2022/09/20 13:40:32;;;;;;;4.13;2.00;;;21.10;57.30;;;;;;4923186;28;93827;-82
2022/09/20 13:43:01;;;;;;;7.72;2.78;;;21.10;57.20;;;;;;4921680;28;92035;-81
2022/09/20 13:45:27;;;;;;;5.22;1.92;;;21.10;57.20;;;;;;4926731;28;92405;-84
2022/09/20 13:47:56;;;;;;;5.13;2.63;;;21.10;57.10;;;;;;4956627;28;96804;-84
2022/09/20 13:50:26;;;;;;;8.63;2.30;;;21.10;57.10;;;;;;4925421;28;93506;-84
2022/09/20 13:52:53;;;;;;;5.10;2.10;;;21.00;57.10;;;;;;4930193;28;92464;-83
2022/09/20 13:55:39;;;;;;;7.68;2.28;;;21.00;57.20;;;;;;4931832;28;91412;-83